createdAt,value
2023-05-12T00:00:33.550Z,94.00
2023-05-12T00:05:55.326Z,94.05
2023-05-12T00:11:17.153Z,95.02
2023-05-12T00:16:39.015Z,94.74
2023-05-12T00:22:01.137Z,94.48
2023-05-12T00:27:23.292Z,95.23
2023-05-12T00:32:45.103Z,95.31
2023-05-12T00:38:06.944Z,95.90
2023-05-12T00:43:29.365Z,95.71
2023-05-12T00:48:51.501Z,96.30
2023-05-12T00:54:13.441Z,97.21
2023-05-12T00:59:35.252Z,96.76
2023-05-12T01:04:57.123Z,96.95
2023-05-12T01:10:22.270Z,97.72
2023-05-12T01:15:47.459Z,98.40
2023-05-12T01:21:10.291Z,98.71
2023-05-12T01:26:33.316Z,98.65
2023-05-12T01:31:55.234Z,98.75
2023-05-12T01:37:17.011Z,99.28
2023-05-12T01:42:42.718Z,99.66
2023-05-12T01:48:04.670Z,98.75
2023-05-12T01:53:26.439Z,99.73
2023-05-12T01:58:48.223Z,99.55
2023-05-12T02:04:10.325Z,99.57
2023-05-12T02:09:32.086Z,100.00
2023-05-12T02:14:53.786Z,100.00
2023-05-12T02:20:15.629Z,100.00
2023-05-12T02:25:37.780Z,100.00
2023-05-12T02:30:59.506Z,100.00
2023-05-12T02:36:21.367Z,100.00
2023-05-12T02:41:43.081Z,100.00
2023-05-12T02:47:05.073Z,100.00
2023-05-12T02:52:26.820Z,100.00
2023-05-12T02:57:48.543Z,100.00
2023-05-12T03:03:10.517Z,100.00
2023-05-12T03:08:32.866Z,100.00
2023-05-12T03:13:54.602Z,100.00
2023-05-12T03:19:16.298Z,100.00
2023-05-12T03:24:38.172Z,100.00
2023-05-12T03:30:05.010Z,100.00
2023-05-12T03:35:26.951Z,100.00
2023-05-12T03:40:52.526Z,100.00
2023-05-12T03:46:14.783Z,100.00
2023-05-12T03:51:36.581Z,100.00
2023-05-12T03:56:58.301Z,100.00
2023-05-12T04:02:20.066Z,100.00
2023-05-12T04:07:41.818Z,100.00
2023-05-12T04:13:03.533Z,100.00
2023-05-12T04:18:26.725Z,100.00
2023-05-12T04:23:52.397Z,100.00
2023-05-12T04:29:14.164Z,100.00
2023-05-12T04:34:35.956Z,100.00
2023-05-12T04:39:57.684Z,100.00
2023-05-12T04:45:19.583Z,100.00
2023-05-12T04:50:41.452Z,100.00
2023-05-12T04:56:03.622Z,100.00
2023-05-12T05:01:25.390Z,100.00
2023-05-12T05:06:47.137Z,100.00
2023-05-12T05:12:09.041Z,100.00
2023-05-12T05:17:30.852Z,100.00
2023-05-12T05:22:52.626Z,100.00
2023-05-12T05:28:14.373Z,100.00
2023-05-12T05:33:36.270Z,100.00
2023-05-12T05:38:58.103Z,100.00
2023-05-12T05:44:19.967Z,100.00
2023-05-12T05:49:42.177Z,100.00
2023-05-12T05:55:04.156Z,100.00
2023-05-12T06:00:25.858Z,100.00
2023-05-12T06:05:48.295Z,100.00
2023-05-12T06:11:10.000Z,100.00
2023-05-12T06:16:31.814Z,99.79
2023-05-12T06:21:53.518Z,98.52
2023-05-12T06:27:15.334Z,98.72
2023-05-12T06:32:37.212Z,98.03
2023-05-12T06:37:58.996Z,96.55
2023-05-12T06:43:20.730Z,96.09
2023-05-12T06:48:42.615Z,94.80
2023-05-12T06:54:04.508Z,94.09
2023-05-12T06:59:26.259Z,93.74
2023-05-12T07:04:47.975Z,94.39
2023-05-12T07:10:10.453Z,93.22
2023-05-12T07:15:33.048Z,93.89
2023-05-12T07:20:55.663Z,94.94
2023-05-12T07:26:18.603Z,95.14
2023-05-12T07:31:40.728Z,93.86
2023-05-12T07:37:03.929Z,94.34
2023-05-12T07:42:25.681Z,92.30
2023-05-12T07:47:47.464Z,90.66
2023-05-12T07:53:09.281Z,91.53
2023-05-12T07:58:31.094Z,90.38
2023-05-12T08:03:52.910Z,89.00
2023-05-12T08:09:17.043Z,88.25
2023-05-12T08:14:38.777Z,88.24
2023-05-12T08:20:00.689Z,85.36
2023-05-12T08:25:22.663Z,85.98
2023-05-12T08:30:45.491Z,84.85
2023-05-12T08:36:07.479Z,85.62
2023-05-12T08:41:55.987Z,83.55
2023-05-12T08:47:18.820Z,83.02
2023-05-12T08:52:40.678Z,83.72
2023-05-12T08:58:03.710Z,82.15
2023-05-12T09:03:27.453Z,81.92
2023-05-12T09:08:49.182Z,80.69
2023-05-12T09:14:19.043Z,81.27
2023-05-12T09:19:40.898Z,80.73
2023-05-12T09:25:16.529Z,81.03
2023-05-12T09:30:42.154Z,79.45
2023-05-12T09:36:04.109Z,80.44
2023-05-12T09:41:25.991Z,81.26
2023-05-12T09:46:48.320Z,82.93
2023-05-12T09:52:10.396Z,79.71
2023-05-12T09:57:37.641Z,78.73
2023-05-12T10:03:00.516Z,78.44
2023-05-12T10:08:32.127Z,78.30
2023-05-12T10:13:53.923Z,77.62
2023-05-12T10:19:15.828Z,78.15
2023-05-12T10:24:37.821Z,77.59
2023-05-12T10:30:01.439Z,78.80
2023-05-12T10:35:32.716Z,79.40
2023-05-12T10:40:58.797Z,78.39
2023-05-12T10:46:22.546Z,77.49
2023-05-12T10:51:44.381Z,79.85
2023-05-12T10:57:15.897Z,80.82
2023-05-12T11:02:51.185Z,79.41
2023-05-12T11:08:14.344Z,80.21
2023-05-12T11:13:37.411Z,80.32
2023-05-12T11:19:04.042Z,80.46
2023-05-12T11:24:25.780Z,80.44
2023-05-12T11:29:58.706Z,84.23
2023-05-12T11:35:21.300Z,89.94
2023-05-12T11:40:43.949Z,96.32
2023-05-12T11:46:05.896Z,93.30
2023-05-12T11:51:27.649Z,98.39
2023-05-12T11:56:53.834Z,99.79
2023-05-12T12:02:21.345Z,100.00
2023-05-12T12:07:43.102Z,99.74
2023-05-12T12:13:05.261Z,100.00
2023-05-12T12:18:27.134Z,98.89
2023-05-12T12:23:51.748Z,97.61
2023-05-12T12:29:13.609Z,93.94
2023-05-12T12:34:35.343Z,90.47
2023-05-12T12:39:57.086Z,90.29
2023-05-12T12:45:20.509Z,86.98
2023-05-12T12:50:42.495Z,85.75
2023-05-12T12:56:05.066Z,80.80
2023-05-12T13:01:26.877Z,78.63
2023-05-12T13:06:49.262Z,78.02
2023-05-12T13:12:11.106Z,77.80
2023-05-12T13:17:32.995Z,76.27
2023-05-12T13:22:54.772Z,77.97
2023-05-12T13:28:16.525Z,77.50
2023-05-12T13:33:38.276Z,77.48
2023-05-12T13:39:00.397Z,77.60
2023-05-12T13:44:22.257Z,74.89
2023-05-12T13:49:43.975Z,74.64
2023-05-12T13:55:06.020Z,74.54
2023-05-12T14:00:29.718Z,77.07
2023-05-12T14:05:51.501Z,78.93
2023-05-12T14:11:13.326Z,81.34
2023-05-12T14:16:35.085Z,81.91
